Talbotton, Georgia
Current Conditions -  °F | °C
As of 2:15 PM on Thursday 18 Dec 2014 (Local Time) from KOPN Reporting Station
Overcast Overcast  
Wind Chill: 64°   Ceiling: 9500
Heat Index: 64°   Visibility: 10mi
Dew Point: 28°   Wind: 3mph
Humidity: 26%   Direction: 270°W
Pressure: 30.1"   Gusts: NA
Location:  32.68°N, 84.54°W
Report Text: KOPN 181915Z AUTO 27003KT 10SM SCT065 BKN095 OVC110 18/M02 A3010 RMK AO2
Loading
Personal Weather Stations






























Interactive Weather Map New forecast layout! Learn more

10-Day Weather Forecast

Advertisements
Track Severe Weather on mobile